Southport, NC

5:57 AM EDT on July 06, 2015 (GMT -0400)
Town of St. James | | Change Station
CLOSE
Current Station
Personal Weather Station
Location: St. James, NC
Elevation: 35 ft
Nearby Weather Stations

Elev 35 ft 33.96 °N, 78.09 °W | Updated 12 minutes ago

Mostly Cloudy
Mostly Cloudy
76.7 °F
Feels Like 78 °F
N
2.0
Wind Variable Wind from West
Gusts 10.0 mph

Today
High -- | Low -- °F
--% Chance of Precip.
Yesterday
High -- | Low -- °F
Precip. -- in
6:06 AM 8:26 PM
Waning Gibbous, 77% visible
Pressure 30.12 in
Visibility 10.0 miles
Clouds Few 3600 ft
Heat Index 78 °F
Dew Point 72 °F
Humidity 86%
Rainfall 0.00 in
Snow Depth Not available.
UV 0 out of 12
Pollen 3.00 out of 12
Air Quality Not available.
Flu Activity Not available.
METAR KILM 060953Z AUTO 16006KT 10SM FEW036 25/22 A3012 RMK AO2 SLP199 T02500222

More Conditions Fewer Conditions

Pressure 30.12 in
Visibility 10.0 miles
Clouds Few 3600 ft
Heat Index 78 °F
Dew Point 72 °F
Humidity 86%
Rainfall 0.00 in
Snow Depth Not available.
UV 0 out of 12
Pollen 3.00 out of 12
Air Quality Not available.
Flu Activity Not available.
METAR KILM 060953Z AUTO 16006KT 10SM FEW036 25/22 A3012 RMK AO2 SLP199 T02500222

More Conditions Fewer Conditions

10-Day Weather Forecast

×

Almanac

Astronomy

Jul. 06, 2015 Rise Set
Actual Time
Civil Twilight
Nautical Twilight
Astronomical Twilight
Moon
Length of Visible Light
Length of Day
Tomorrow will be .
, % of the Moon is Illuminated

Today's Extremes

State Highs State Lows

Community

WunderPhotos

Upload Photos

1,835,520 photos uploaded!

WunderBlogs® & News

Nearby

Air Quality

  Air Quality AQ Index Pollutant
Not available.

Snow Depth

Station Depth Elevation

Earthquake Activity

City Distance Mag. Time & Date
Minimum magnitude displayed is 2.5.

Coastal Water Temperatures

Place Temperature

Stations

Nearby Weather Stations

Station Location Temp. Windchill Dew Point Humidity Wind Precip. Elev Updated Type